sensor_id;sensor_type;location;lat;lon;timestamp;pressure;altitude;pressure_sealevel;temperature;humidity
51928;BME280;37953;52.806;18.270;2022-10-16T00:01:24;100481.72;;;14.60;100.00
51928;BME280;37953;52.806;18.270;2022-10-16T00:03:51;100484.41;;;14.55;100.00
51928;BME280;37953;52.806;18.270;2022-10-16T00:06:19;100481.78;;;14.54;100.00
51928;BME280;37953;52.806;18.270;2022-10-16T00:08:45;100481.84;;;14.51;100.00
51928;BME280;37953;52.806;18.270;2022-10-16T00:11:15;100490.59;;;14.48;100.00
51928;BME280;37953;52.806;18.270;2022-10-16T00:13:43;100494.09;;;14.45;100.00
51928;BME280;37953;52.806;18.270;2022-10-16T00:16:13;100488.03;;;14.43;100.00
51928;BME280;37953;52.806;18.270;2022-10-16T00:18:40;100485.47;;;14.39;100.00
51928;BME280;37953;52.806;18.270;2022-10-16T00:21:15;100489.84;;;14.37;100.00
51928;BME280;37953;52.806;18.270;2022-10-16T00:23:51;100496.81;;;14.36;100.00
51928;BME280;37953;52.806;18.270;2022-10-16T00:26:18;100495.13;;;14.32;100.00
51928;BME280;37953;52.806;18.270;2022-10-16T00:28:49;100502.13;;;14.32;100.00
51928;BME280;37953;52.806;18.270;2022-10-16T00:31:15;100496.75;;;14.41;100.00
51928;BME280;37953;52.806;18.270;2022-10-16T00:33:48;100499.50;;;14.32;100.00
51928;BME280;37953;52.806;18.270;2022-10-16T00:36:17;100489.09;;;14.27;100.00
51928;BME280;37953;52.806;18.270;2022-10-16T00:38:55;100492.63;;;14.24;100.00
51928;BME280;37953;52.806;18.270;2022-10-16T00:41:24;100494.41;;;14.21;100.00
51928;BME280;37953;52.806;18.270;2022-10-16T00:43:57;100488.31;;;14.20;100.00
51928;BME280;37953;52.806;18.270;2022-10-16T00:46:38;100487.47;;;14.18;100.00
51928;BME280;37953;52.806;18.270;2022-10-16T00:49:21;100486.63;;;14.16;100.00
51928;BME280;37953;52.806;18.270;2022-10-16T00:51:49;100482.31;;;14.12;100.00
51928;BME280;37953;52.806;18.270;2022-10-16T00:54:28;100482.25;;;14.15;100.00
51928;BME280;37953;52.806;18.270;2022-10-16T00:57:02;100482.25;;;14.15;100.00
51928;BME280;37953;52.806;18.270;2022-10-16T00:59:33;100486.66;;;14.13;100.00
51928;BME280;37953;52.806;18.270;2022-10-16T01:02:00;100491.88;;;14.13;100.00
51928;BME280;37953;52.806;18.270;2022-10-16T01:04:33;100491.88;;;14.12;100.00
51928;BME280;37953;52.806;18.270;2022-10-16T01:07:29;100491.88;;;14.13;100.00
51928;BME280;37953;52.806;18.270;2022-10-16T01:10:30;100500.56;;;14.15;100.00
51928;BME280;37953;52.806;18.270;2022-10-16T01:13:21;100501.47;;;14.11;100.00
51928;BME280;37953;52.806;18.270;2022-10-16T01:16:18;100506.69;;;14.14;100.00
51928;BME280;37953;52.806;18.270;2022-10-16T01:18:54;100510.16;;;14.12;100.00
51928;BME280;37953;52.806;18.270;2022-10-16T01:21:28;100508.44;;;14.11;100.00
51928;BME280;37953;52.806;18.270;2022-10-16T01:27:25;100506.69;;;14.13;100.00
51928;BME280;37953;52.806;18.270;2022-10-16T01:30:23;100506.69;;;14.13;100.00
51928;BME280;37953;52.806;18.270;2022-10-16T01:32:50;100511.91;;;14.13;100.00
51928;BME280;37953;52.806;18.270;2022-10-16T01:35:22;100511.06;;;14.12;100.00
51928;BME280;37953;52.806;18.270;2022-10-16T01:38:05;100515.38;;;14.15;100.00
51928;BME280;37953;52.806;18.270;2022-10-16T01:40:36;100517.13;;;14.13;100.00
51928;BME280;37953;52.806;18.270;2022-10-16T01:43:08;100514.50;;;14.14;100.00
51928;BME280;37953;52.806;18.270;2022-10-16T01:45:36;100516.25;;;14.14;100.00
51928;BME280;37953;52.806;18.270;2022-10-16T01:48:04;100521.47;;;14.14;100.00
51928;BME280;37953;52.806;18.270;2022-10-16T01:50:37;100521.47;;;14.15;100.00
51928;BME280;37953;52.806;18.270;2022-10-16T01:53:07;100519.69;;;14.16;100.00
51928;BME280;37953;52.806;18.270;2022-10-16T01:55:38;100513.59;;;14.17;100.00
51928;BME280;37953;52.806;18.270;2022-10-16T01:58:08;100514.47;;;14.17;100.00
51928;BME280;37953;52.806;18.270;2022-10-16T02:00:43;100522.28;;;14.20;100.00
51928;BME280;37953;52.806;18.270;2022-10-16T02:03:11;100515.31;;;14.19;100.00
51928;BME280;37953;52.806;18.270;2022-10-16T02:05:40;100515.31;;;14.19;100.00
51928;BME280;37953;52.806;18.270;2022-10-16T02:08:15;100510.94;;;14.20;100.00
51928;BME280;37953;52.806;18.270;2022-10-16T02:10:47;100516.16;;;14.21;100.00
51928;BME280;37953;52.806;18.270;2022-10-16T02:13:19;100505.72;;;14.21;100.00
51928;BME280;37953;52.806;18.270;2022-10-16T02:15:47;100514.44;;;14.20;100.00
51928;BME280;37953;52.806;18.270;2022-10-16T02:18:14;100514.44;;;14.20;100.00
51928;BME280;37953;52.806;18.270;2022-10-16T02:23:54;100521.38;;;14.24;100.00
51928;BME280;37953;52.806;18.270;2022-10-16T02:26:52;100523.97;;;14.24;100.00
51928;BME280;37953;52.806;18.270;2022-10-16T02:29:24;100524.84;;;14.22;100.00
51928;BME280;37953;52.806;18.270;2022-10-16T02:31:55;100526.63;;;14.21;100.00
51928;BME280;37953;52.806;18.270;2022-10-16T02:34:23;100518.78;;;14.21;100.00
51928;BME280;37953;52.806;18.270;2022-10-16T02:36:52;100516.16;;;14.21;100.00
51928;BME280;37953;52.806;18.270;2022-10-16T02:39:24;100512.69;;;14.21;100.00
51928;BME280;37953;52.806;18.270;2022-10-16T02:41:52;100509.22;;;14.20;100.00
51928;BME280;37953;52.806;18.270;2022-10-16T02:44:18;100509.22;;;14.20;100.00
51928;BME280;37953;52.806;18.270;2022-10-16T02:46:44;100506.63;;;14.20;100.00
51928;BME280;37953;52.806;18.270;2022-10-16T02:49:10;100510.06;;;14.21;100.00
51928;BME280;37953;52.806;18.270;2022-10-16T02:51:36;100514.41;;;14.22;100.00
51928;BME280;37953;52.806;18.270;2022-10-16T02:54:02;100520.53;;;14.22;100.00
51928;BME280;37953;52.806;18.270;2022-10-16T02:56:29;100524.84;;;14.23;100.00
51928;BME280;37953;52.806;18.270;2022-10-16T02:58:55;100523.09;;;14.25;100.00
51928;BME280;37953;52.806;18.270;2022-10-16T03:01:22;100517.00;;;14.27;100.00
51928;BME280;37953;52.806;18.270;2022-10-16T03:03:48;100502.16;;;14.27;100.00
51928;BME280;37953;52.806;18.270;2022-10-16T03:06:14;100506.50;;;14.28;100.00
51928;BME280;37953;52.806;18.270;2022-10-16T03:08:40;100514.31;;;14.30;100.00
51928;BME280;37953;52.806;18.270;2022-10-16T03:11:06;100516.94;;;14.30;100.00
51928;BME280;37953;52.806;18.270;2022-10-16T03:13:35;100519.56;;;14.30;100.00
51928;BME280;37953;52.806;18.270;2022-10-16T03:16:01;100523.03;;;14.30;100.00
51928;BME280;37953;52.806;18.270;2022-10-16T03:18:27;100520.41;;;14.30;100.00
51928;BME280;37953;52.806;18.270;2022-10-16T03:20:53;100525.63;;;14.32;100.00
51928;BME280;37953;52.806;18.270;2022-10-16T03:23:18;100525.63;;;14.30;100.00
51928;BME280;37953;52.806;18.270;2022-10-16T03:25:44;100527.38;;;14.31;100.00
51928;BME280;37953;52.806;18.270;2022-10-16T03:28:10;100530.00;;;14.31;100.00
51928;BME280;37953;52.806;18.270;2022-10-16T03:30:37;100528.25;;;14.32;100.00
51928;BME280;37953;52.806;18.270;2022-10-16T03:33:05;100530.84;;;14.32;100.00
51928;BME280;37953;52.806;18.270;2022-10-16T03:35:50;100529.94;;;14.34;100.00
51928;BME280;37953;52.806;18.270;2022-10-16T03:38:16;100529.09;;;14.32;100.00
51928;BME280;37953;52.806;18.270;2022-10-16T03:40:42;100534.31;;;14.32;100.00
51928;BME280;37953;52.806;18.270;2022-10-16T03:43:08;100530.84;;;14.32;100.00
51928;BME280;37953;52.806;18.270;2022-10-16T03:45:34;100530.84;;;14.32;100.00
51928;BME280;37953;52.806;18.270;2022-10-16T03:48:00;100533.47;;;14.32;100.00
51928;BME280;37953;52.806;18.270;2022-10-16T03:50:28;100532.56;;;14.33;100.00
51928;BME280;37953;52.806;18.270;2022-10-16T03:52:57;100536.94;;;14.34;100.00
51928;BME280;37953;52.806;18.270;2022-10-16T03:55:23;100539.56;;;14.32;100.00
51928;BME280;37953;52.806;18.270;2022-10-16T03:57:49;100550.00;;;14.34;100.00
51928;BME280;37953;52.806;18.270;2022-10-16T04:00:15;100543.88;;;14.35;100.00
51928;BME280;37953;52.806;18.270;2022-10-16T04:02:41;100543.88;;;14.35;100.00
51928;BME280;37953;52.806;18.270;2022-10-16T04:05:07;100550.88;;;14.33;100.00
51928;BME280;37953;52.806;18.270;2022-10-16T04:07:33;100548.25;;;14.34;100.00
51928;BME280;37953;52.806;18.270;2022-10-16T04:10:00;100550.00;;;14.34;100.00
51928;BME280;37953;52.806;18.270;2022-10-16T04:12:26;100553.47;;;14.34;100.00
51928;BME280;37953;52.806;18.270;2022-10-16T04:14:52;100552.63;;;14.34;100.00
51928;BME280;37953;52.806;18.270;2022-10-16T04:17:18;100556.94;;;14.36;100.00
51928;BME280;37953;52.806;18.270;2022-10-16T04:19:51;100552.59;;;14.35;100.00
51928;BME280;37953;52.806;18.270;2022-10-16T04:22:17;100549.94;;;14.37;100.00
51928;BME280;37953;52.806;18.270;2022-10-16T04:24:43;100547.34;;;14.37;100.00
51928;BME280;37953;52.806;18.270;2022-10-16T04:27:09;100542.09;;;14.37;100.00
51928;BME280;37953;52.806;18.270;2022-10-16T04:29:35;100549.94;;;14.37;100.00
51928;BME280;37953;52.806;18.270;2022-10-16T04:32:01;100556.94;;;14.36;100.00
51928;BME280;37953;52.806;18.270;2022-10-16T04:34:27;100561.31;;;14.36;100.00
51928;BME280;37953;52.806;18.270;2022-10-16T04:36:53;100563.91;;;14.37;100.00
51928;BME280;37953;52.806;18.270;2022-10-16T04:39:20;100558.69;;;14.36;100.00
51928;BME280;37953;52.806;18.270;2022-10-16T04:41:45;100568.25;;;14.37;100.00
51928;BME280;37953;52.806;18.270;2022-10-16T04:44:12;100571.75;;;14.37;100.00
51928;BME280;37953;52.806;18.270;2022-10-16T04:46:38;100562.16;;;14.36;100.00
51928;BME280;37953;52.806;18.270;2022-10-16T04:49:04;100562.16;;;14.36;100.00
51928;BME280;37953;52.806;18.270;2022-10-16T04:51:30;100566.53;;;14.37;100.00
51928;BME280;37953;52.806;18.270;2022-10-16T04:53:56;100570.00;;;14.38;100.00
51928;BME280;37953;52.806;18.270;2022-10-16T04:56:22;100573.47;;;14.38;100.00
51928;BME280;37953;52.806;18.270;2022-10-16T04:58:48;100576.94;;;14.39;100.00
51928;BME280;37953;52.806;18.270;2022-10-16T05:01:14;100574.31;;;14.39;100.00
51928;BME280;37953;52.806;18.270;2022-10-16T05:03:40;100576.06;;;14.41;100.00
51928;BME280;37953;52.806;18.270;2022-10-16T05:06:07;100579.53;;;14.40;100.00
51928;BME280;37953;52.806;18.270;2022-10-16T05:08:33;100583.00;;;14.41;100.00
51928;BME280;37953;52.806;18.270;2022-10-16T05:10:59;100586.50;;;14.41;100.00
51928;BME280;37953;52.806;18.270;2022-10-16T05:13:26;100593.47;;;14.42;100.00
51928;BME280;37953;52.806;18.270;2022-10-16T05:15:52;100604.78;;;14.43;100.00
51928;BME280;37953;52.806;18.270;2022-10-16T05:18:18;100601.28;;;14.44;100.00
51928;BME280;37953;52.806;18.270;2022-10-16T05:20:44;100602.16;;;14.43;100.00
51928;BME280;37953;52.806;18.270;2022-10-16T05:23:10;100603.91;;;14.44;100.00
51928;BME280;37953;52.806;18.270;2022-10-16T05:25:37;100615.22;;;14.44;100.00
51928;BME280;37953;52.806;18.270;2022-10-16T05:28:04;100608.28;;;14.43;100.00
51928;BME280;37953;52.806;18.270;2022-10-16T05:30:30;100614.31;;;14.45;100.00
51928;BME280;37953;52.806;18.270;2022-10-16T05:32:56;100617.81;;;14.44;100.00
51928;BME280;37953;52.806;18.270;2022-10-16T05:35:22;100622.16;;;14.45;100.00
51928;BME280;37953;52.806;18.270;2022-10-16T05:37:48;100631.75;;;14.45;100.00
51928;BME280;37953;52.806;18.270;2022-10-16T05:40:14;100629.16;;;14.45;100.00
51928;BME280;37953;52.806;18.270;2022-10-16T05:42:41;100622.16;;;14.47;100.00
51928;BME280;37953;52.806;18.270;2022-10-16T05:45:09;100628.25;;;14.48;100.00
51928;BME280;37953;52.806;18.270;2022-10-16T05:47:41;100620.41;;;14.48;100.00
51928;BME280;37953;52.806;18.270;2022-10-16T05:50:10;100625.63;;;14.49;100.00
51928;BME280;37953;52.806;18.270;2022-10-16T05:52:36;100624.75;;;14.49;100.00
51928;BME280;37953;52.806;18.270;2022-10-16T05:55:03;100630.00;;;14.49;100.00
51928;BME280;37953;52.806;18.270;2022-10-16T05:57:29;100637.81;;;14.50;100.00
51928;BME280;37953;52.806;18.270;2022-10-16T05:59:55;100644.75;;;14.51;100.00
51928;BME280;37953;52.806;18.270;2022-10-16T06:02:22;100649.13;;;14.52;100.00
51928;BME280;37953;52.806;18.270;2022-10-16T06:04:48;100650.00;;;14.53;100.00
51928;BME280;37953;52.806;18.270;2022-10-16T06:07:17;100641.25;;;14.54;100.00
51928;BME280;37953;52.806;18.270;2022-10-16T06:09:43;100642.13;;;14.56;100.00
51928;BME280;37953;52.806;18.270;2022-10-16T06:12:09;100643.88;;;14.57;100.00
51928;BME280;37953;52.806;18.270;2022-10-16T06:14:35;100646.44;;;14.60;100.00
51928;BME280;37953;52.806;18.270;2022-10-16T06:17:01;100649.06;;;14.60;100.00
51928;BME280;37953;52.806;18.270;2022-10-16T06:19:27;100649.03;;;14.63;100.00
51928;BME280;37953;52.806;18.270;2022-10-16T06:21:53;100643.78;;;14.64;100.00
51928;BME280;37953;52.806;18.270;2022-10-16T06:24:19;100645.53;;;14.65;100.00
51928;BME280;37953;52.806;18.270;2022-10-16T06:26:45;100650.75;;;14.67;100.00
51928;BME280;37953;52.806;18.270;2022-10-16T06:29:11;100655.06;;;14.70;100.00
51928;BME280;37953;52.806;18.270;2022-10-16T06:31:37;100651.53;;;14.72;100.00
51928;BME280;37953;52.806;18.270;2022-10-16T06:34:03;100649.78;;;14.73;100.00
51928;BME280;37953;52.806;18.270;2022-10-16T06:36:31;100650.69;;;14.73;100.00
51928;BME280;37953;52.806;18.270;2022-10-16T06:39:04;100656.75;;;14.75;100.00
51928;BME280;37953;52.806;18.270;2022-10-16T06:41:31;100661.09;;;14.76;100.00
51928;BME280;37953;52.806;18.270;2022-10-16T06:43:57;100660.19;;;14.77;100.00
51928;BME280;37953;52.806;18.270;2022-10-16T06:46:24;100649.78;;;14.76;100.00
51928;BME280;37953;52.806;18.270;2022-10-16T06:48:50;100660.19;;;14.79;100.00
51928;BME280;37953;52.806;18.270;2022-10-16T06:51:20;100649.72;;;14.79;100.00
51928;BME280;37953;52.806;18.270;2022-10-16T06:53:54;100651.44;;;14.81;100.00
51928;BME280;37953;52.806;18.270;2022-10-16T06:56:25;100651.41;;;14.83;100.00
51928;BME280;37953;52.806;18.270;2022-10-16T06:58:56;100654.88;;;14.83;100.00
51928;BME280;37953;52.806;18.270;2022-10-16T07:01:23;100666.19;;;14.85;100.00
51928;BME280;37953;52.806;18.270;2022-10-16T07:03:49;100669.72;;;14.86;100.00
51928;BME280;37953;52.806;18.270;2022-10-16T07:06:18;100668.88;;;14.82;100.00
51928;BME280;37953;52.806;18.270;2022-10-16T07:08:46;100687.97;;;14.89;100.00
51928;BME280;37953;52.806;18.270;2022-10-16T07:11:14;100683.59;;;14.90;100.00
51928;BME280;37953;52.806;18.270;2022-10-16T07:13:42;100688.81;;;14.91;100.00
51928;BME280;37953;52.806;18.270;2022-10-16T07:16:12;100689.69;;;14.92;100.00
51928;BME280;37953;52.806;18.270;2022-10-16T07:18:38;100692.28;;;14.93;100.00
51928;BME280;37953;52.806;18.270;2022-10-16T07:21:10;100699.22;;;14.94;100.00
51928;BME280;37953;52.806;18.270;2022-10-16T07:23:36;100696.53;;;15.02;100.00
51928;BME280;37953;52.806;18.270;2022-10-16T07:26:04;100707.91;;;14.98;100.00
51928;BME280;37953;52.806;18.270;2022-10-16T07:28:30;100706.19;;;14.97;100.00
51928;BME280;37953;52.806;18.270;2022-10-16T07:31:06;100698.34;;;14.97;100.00
51928;BME280;37953;52.806;18.270;2022-10-16T07:33:33;100709.66;;;14.99;100.00
51928;BME280;37953;52.806;18.270;2022-10-16T07:36:00;100712.28;;;14.97;100.00
51928;BME280;37953;52.806;18.270;2022-10-16T07:38:26;100713.16;;;14.99;100.00
51928;BME280;37953;52.806;18.270;2022-10-16T07:41:08;100718.31;;;15.02;100.00
51928;BME280;37953;52.806;18.270;2022-10-16T07:43:35;100716.59;;;15.01;100.00
51928;BME280;37953;52.806;18.270;2022-10-16T07:46:01;100730.53;;;15.02;100.00
51928;BME280;37953;52.806;18.270;2022-10-16T07:48:29;100725.31;;;15.03;100.00
51928;BME280;37953;52.806;18.270;2022-10-16T07:51:08;100720.03;;;15.06;100.00
51928;BME280;37953;52.806;18.270;2022-10-16T07:53:34;100728.75;;;15.07;100.00
51928;BME280;37953;52.806;18.270;2022-10-16T07:56:02;100723.53;;;15.07;100.00
51928;BME280;37953;52.806;18.270;2022-10-16T07:58:29;100726.09;;;15.09;100.00
51928;BME280;37953;52.806;18.270;2022-10-16T08:00:56;100723.44;;;15.13;100.00
51928;BME280;37953;52.806;18.270;2022-10-16T08:03:28;100719.03;;;15.17;100.00
51928;BME280;37953;52.806;18.270;2022-10-16T08:05:56;100729.47;;;15.20;100.00
51928;BME280;37953;52.806;18.270;2022-10-16T08:08:23;100727.72;;;15.22;100.00
51928;BME280;37953;52.806;18.270;2022-10-16T08:10:49;100725.94;;;15.24;100.00
51928;BME280;37953;52.806;18.270;2022-10-16T08:13:15;100739.84;;;15.26;100.00
51928;BME280;37953;52.806;18.270;2022-10-16T08:15:42;100753.78;;;15.30;100.00
51928;BME280;37953;52.806;18.270;2022-10-16T08:18:15;100752.00;;;15.32;100.00
51928;BME280;37953;52.806;18.270;2022-10-16T08:20:42;100742.38;;;15.34;100.00
51928;BME280;37953;52.806;18.270;2022-10-16T08:23:12;100748.47;;;15.37;100.00
51928;BME280;37953;52.806;18.270;2022-10-16T08:25:40;100751.03;;;15.40;100.00
51928;BME280;37953;52.806;18.270;2022-10-16T08:28:08;100748.38;;;15.43;100.00
51928;BME280;37953;52.806;18.270;2022-10-16T08:30:35;100743.94;;;15.47;100.00
51928;BME280;37953;52.806;18.270;2022-10-16T08:33:02;100744.78;;;15.51;100.00
51928;BME280;37953;52.806;18.270;2022-10-16T08:35:28;100739.53;;;15.52;100.00
51928;BME280;37953;52.806;18.270;2022-10-16T08:37:54;100748.22;;;15.56;100.00
51928;BME280;37953;52.806;18.270;2022-10-16T08:40:26;100743.84;;;15.56;100.00
51928;BME280;37953;52.806;18.270;2022-10-16T08:43:03;100750.78;;;15.59;100.00
51928;BME280;37953;52.806;18.270;2022-10-16T08:48:47;100743.63;;;15.70;100.00
51928;BME280;37953;52.806;18.270;2022-10-16T08:51:24;100739.25;;;15.75;100.00
51928;BME280;37953;52.806;18.270;2022-10-16T08:53:56;100748.81;;;15.79;100.00
51928;BME280;37953;52.806;18.270;2022-10-16T08:56:24;100744.38;;;15.83;100.00
51928;BME280;37953;52.806;18.270;2022-10-16T08:58:53;100753.06;;;15.86;100.00
51928;BME280;37953;52.806;18.270;2022-10-16T09:01:22;100753.91;;;15.88;100.00
51928;BME280;37953;52.806;18.270;2022-10-16T09:07:04;100742.41;;;15.99;100.00
51928;BME280;37953;52.806;18.270;2022-10-16T09:18:06;100745.69;;;16.13;100.00
51928;BME280;37953;52.806;18.270;2022-10-16T09:21:01;100752.59;;;16.17;100.00
51928;BME280;37953;52.806;18.270;2022-10-16T09:23:35;100750.84;;;16.18;100.00
51928;BME280;37953;52.806;18.270;2022-10-16T09:26:03;100755.19;;;16.19;100.00
51928;BME280;37953;52.806;18.270;2022-10-16T09:28:31;100754.31;;;16.20;100.00
51928;BME280;37953;52.806;18.270;2022-10-16T09:30:57;100743.75;;;16.23;100.00
51928;BME280;37953;52.806;18.270;2022-10-16T09:33:27;100754.22;;;16.24;100.00
51928;BME280;37953;52.806;18.270;2022-10-16T09:35:56;100743.69;;;16.27;100.00
51928;BME280;37953;52.806;18.270;2022-10-16T09:40:50;100749.72;;;16.34;100.00
51928;BME280;37953;52.806;18.270;2022-10-16T09:43:23;100743.53;;;16.37;100.00
51928;BME280;37953;52.806;18.270;2022-10-16T09:46:05;100742.63;;;16.39;100.00
51928;BME280;37953;52.806;18.270;2022-10-16T09:48:37;100747.78;;;16.42;100.00
51928;BME280;37953;52.806;18.270;2022-10-16T09:51:05;100760.03;;;16.43;100.00
51928;BME280;37953;52.806;18.270;2022-10-16T09:53:45;100767.84;;;16.46;100.00
51928;BME280;37953;52.806;18.270;2022-10-16T09:56:24;100770.44;;;16.48;100.00
51928;BME280;37953;52.806;18.270;2022-10-16T09:58:57;100773.97;;;16.47;100.00
51928;BME280;37953;52.806;18.270;2022-10-16T10:01:30;100769.56;;;16.49;100.00
51928;BME280;37953;52.806;18.270;2022-10-16T10:04:00;100778.28;;;16.51;100.00
51928;BME280;37953;52.806;18.270;2022-10-16T10:06:33;100771.25;;;16.52;100.00
51928;BME280;37953;52.806;18.270;2022-10-16T10:14:44;100780.84;;;16.54;100.00
51928;BME280;37953;52.806;18.270;2022-10-16T10:17:15;100783.38;;;16.57;100.00
51928;BME280;37953;52.806;18.270;2022-10-16T10:22:40;100780.72;;;16.60;100.00
51928;BME280;37953;52.806;18.270;2022-10-16T10:30:55;100787.66;;;16.63;100.00
51928;BME280;37953;52.806;18.270;2022-10-16T10:33:45;100787.69;;;16.61;100.00
51928;BME280;37953;52.806;18.270;2022-10-16T10:38:51;100779.78;;;16.64;100.00
51928;BME280;37953;52.806;18.270;2022-10-16T10:46:57;100786.69;;;16.70;100.00
51928;BME280;37953;52.806;18.270;2022-10-16T10:55:36;100791.88;;;16.72;100.00
51928;BME280;37953;52.806;18.270;2022-10-16T10:58:44;100809.41;;;16.71;100.00
51928;BME280;37953;52.806;18.270;2022-10-16T11:01:48;100798.03;;;16.72;100.00
51928;BME280;37953;52.806;18.270;2022-10-16T11:04:47;100797.09;;;16.75;100.00
51928;BME280;37953;52.806;18.270;2022-10-16T11:07:21;100793.56;;;16.77;100.00
51928;BME280;37953;52.806;18.270;2022-10-16T11:10:52;100800.50;;;16.81;100.00
51928;BME280;37953;52.806;18.270;2022-10-16T11:16:03;100800.34;;;16.91;100.00
51928;BME280;37953;52.806;18.270;2022-10-16T11:21:44;100814.16;;;17.00;100.00
51928;BME280;37953;52.806;18.270;2022-10-16T11:24:18;100807.13;;;17.02;100.00
51928;BME280;37953;52.806;18.270;2022-10-16T11:26:47;100800.06;;;17.06;100.00
51928;BME280;37953;52.806;18.270;2022-10-16T11:29:23;100809.59;;;17.10;100.00
51928;BME280;37953;52.806;18.270;2022-10-16T11:31:58;100803.44;;;17.13;100.00
51928;BME280;37953;52.806;18.270;2022-10-16T11:34:34;100792.00;;;17.17;100.00
51928;BME280;37953;52.806;18.270;2022-10-16T11:37:13;100791.91;;;17.21;100.00
51928;BME280;37953;52.806;18.270;2022-10-16T11:39:43;100792.69;;;17.25;100.00
51928;BME280;37953;52.806;18.270;2022-10-16T11:42:13;100783.00;;;17.28;100.00
51928;BME280;37953;52.806;18.270;2022-10-16T11:50:09;100782.78;;;17.39;100.00
51928;BME280;37953;52.806;18.270;2022-10-16T11:52:55;100779.19;;;17.43;100.00
51928;BME280;37953;52.806;18.270;2022-10-16T11:55:37;100780.00;;;17.47;100.00
51928;BME280;37953;52.806;18.270;2022-10-16T12:00:58;100786.06;;;17.50;100.00
51928;BME280;37953;52.806;18.270;2022-10-16T12:06:35;100779.91;;;17.52;100.00
51928;BME280;37953;52.806;18.270;2022-10-16T12:09:09;100772.00;;;17.53;100.00
51928;BME280;37953;52.806;18.270;2022-10-16T12:11:38;100778.09;;;17.55;100.00
51928;BME280;37953;52.806;18.270;2022-10-16T12:14:21;100778.94;;;17.56;100.00
51928;BME280;37953;52.806;18.270;2022-10-16T12:20:00;100773.66;;;17.57;100.00
51928;BME280;37953;52.806;18.270;2022-10-16T12:22:29;100778.94;;;17.56;100.00
51928;BME280;37953;52.806;18.270;2022-10-16T12:24:57;100773.69;;;17.56;100.00
51928;BME280;37953;52.806;18.270;2022-10-16T12:27:31;100771.91;;;17.56;100.00
51928;BME280;37953;52.806;18.270;2022-10-16T12:30:03;100781.53;;;17.57;100.00
51928;BME280;37953;52.806;18.270;2022-10-16T12:35:05;100782.41;;;17.58;100.00
51928;BME280;37953;52.806;18.270;2022-10-16T12:37:36;100772.72;;;17.60;100.00
51928;BME280;37953;52.806;18.270;2022-10-16T12:40:15;100770.06;;;17.61;100.00
51928;BME280;37953;52.806;18.270;2022-10-16T12:42:48;100780.53;;;17.63;100.00
51928;BME280;37953;52.806;18.270;2022-10-16T12:45:33;100780.50;;;17.64;100.00
51928;BME280;37953;52.806;18.270;2022-10-16T12:48:19;100792.75;;;17.65;100.00
51928;BME280;37953;52.806;18.270;2022-10-16T12:50:51;100794.50;;;17.65;100.00
51928;BME280;37953;52.806;18.270;2022-10-16T12:53:24;100797.09;;;17.66;100.00
51928;BME280;37953;52.806;18.270;2022-10-16T12:56:27;100804.88;;;17.71;100.00
51928;BME280;37953;52.806;18.270;2022-10-16T13:13:01;100799.56;;;17.74;100.00
51928;BME280;37953;52.806;18.270;2022-10-16T13:18:44;100804.84;;;17.74;100.00
51928;BME280;37953;52.806;18.270;2022-10-16T13:21:38;100807.41;;;17.76;100.00
51928;BME280;37953;52.806;18.270;2022-10-16T13:30:23;100814.31;;;17.80;100.00
51928;BME280;37953;52.806;18.270;2022-10-16T13:33:34;100815.22;;;17.80;100.00
51928;BME280;37953;52.806;18.270;2022-10-16T13:36:02;100819.63;;;17.78;100.00
51928;BME280;37953;52.806;18.270;2022-10-16T13:38:34;100827.47;;;17.80;100.00
51928;BME280;37953;52.806;18.270;2022-10-16T13:41:03;100834.47;;;17.81;100.00
51928;BME280;37953;52.806;18.270;2022-10-16T13:43:50;100823.06;;;17.83;100.00
51928;BME280;37953;52.806;18.270;2022-10-16T13:46:19;100828.31;;;17.83;100.00
51928;BME280;37953;52.806;18.270;2022-10-16T13:49:17;100828.28;;;17.85;100.00
51928;BME280;37953;52.806;18.270;2022-10-16T13:52:00;100829.13;;;17.85;100.00
51928;BME280;37953;52.806;18.270;2022-10-16T13:54:46;100825.66;;;17.85;100.00
51928;BME280;37953;52.806;18.270;2022-10-16T13:57:17;100830.88;;;17.86;100.00
51928;BME280;37953;52.806;18.270;2022-10-16T13:59:43;100841.41;;;17.86;100.00
51928;BME280;37953;52.806;18.270;2022-10-16T14:02:30;100839.56;;;17.90;100.00
51928;BME280;37953;52.806;18.270;2022-10-16T14:04:57;100846.59;;;17.88;100.00
51928;BME280;37953;52.806;18.270;2022-10-16T14:07:26;100844.81;;;17.90;100.00
51928;BME280;37953;52.806;18.270;2022-10-16T14:09:57;100843.03;;;17.90;100.00
51928;BME280;37953;52.806;18.270;2022-10-16T14:12:25;100847.41;;;17.92;100.00
51928;BME280;37953;52.806;18.270;2022-10-16T14:14:53;100844.75;;;17.93;100.00
51928;BME280;37953;52.806;18.270;2022-10-16T14:17:27;100837.75;;;17.92;100.00
51928;BME280;37953;52.806;18.270;2022-10-16T14:20:05;100845.59;;;17.95;100.00
51928;BME280;37953;52.806;18.270;2022-10-16T14:22:39;100839.41;;;17.96;100.00
51928;BME280;37953;52.806;18.270;2022-10-16T14:27:45;100856.03;;;17.98;100.00
51928;BME280;37953;52.806;18.270;2022-10-16T14:30:18;100856.84;;;18.00;100.00
51928;BME280;37953;52.806;18.270;2022-10-16T14:32:59;100849.88;;;17.99;100.00